createdAt,value
2018-06-20T00:01:11.120Z,83.10
2018-06-20T00:03:45.820Z,83.00
2018-06-20T00:06:20.376Z,83.10
2018-06-20T00:08:55.207Z,83.20
2018-06-20T00:11:29.850Z,83.30
2018-06-20T00:14:04.678Z,83.40
2018-06-20T00:16:39.279Z,83.30
2018-06-20T00:21:49.170Z,83.40
2018-06-20T00:24:24.218Z,83.50
2018-06-20T00:26:58.853Z,83.50
2018-06-20T00:29:34.450Z,83.50
2018-06-20T00:32:09.401Z,83.50
2018-06-20T00:34:44.153Z,83.60
2018-06-20T00:37:19.016Z,83.60
2018-06-20T00:39:53.678Z,83.70
2018-06-20T00:42:28.515Z,83.60
2018-06-20T00:45:03.060Z,83.60
2018-06-20T00:50:12.525Z,83.60
2018-06-20T00:52:47.681Z,83.60
2018-06-20T00:55:39.646Z,83.60
2018-06-20T00:58:14.045Z,83.70
2018-06-20T01:00:48.814Z,83.70
2018-06-20T01:03:23.449Z,83.80
2018-06-20T01:05:58.040Z,83.90
2018-06-20T01:08:32.685Z,83.90
2018-06-20T01:11:07.477Z,84.00
2018-06-20T01:13:42.104Z,84.00
2018-06-20T01:16:17.093Z,84.10
2018-06-20T01:18:51.864Z,84.20
2018-06-20T01:21:26.712Z,84.30
2018-06-20T01:24:01.288Z,84.50
2018-06-20T01:26:35.936Z,84.50
2018-06-20T01:29:10.839Z,84.50
2018-06-20T01:31:45.505Z,84.50
2018-06-20T01:34:20.219Z,84.50
2018-06-20T01:36:54.899Z,84.40
2018-06-20T01:39:29.677Z,84.30
2018-06-20T01:42:05.839Z,84.30
2018-06-20T01:44:40.130Z,84.40
2018-06-20T01:47:14.658Z,84.40
2018-06-20T01:49:49.087Z,84.40
2018-06-20T01:52:23.723Z,84.90
2018-06-20T01:54:58.718Z,84.60
2018-06-20T01:57:33.667Z,85.00
2018-06-20T02:00:08.114Z,84.70
2018-06-20T02:02:42.999Z,84.60
2018-06-20T02:05:17.752Z,84.60
2018-06-20T02:07:53.763Z,84.70
2018-06-20T02:10:28.157Z,85.50
2018-06-20T02:13:03.112Z,84.60
2018-06-20T02:15:37.457Z,84.60
2018-06-20T02:18:12.341Z,84.60
2018-06-20T02:20:46.982Z,84.70
2018-06-20T02:23:22.341Z,84.80
2018-06-20T02:25:56.554Z,84.70
2018-06-20T02:28:31.370Z,85.40
2018-06-20T02:31:06.027Z,84.80
2018-06-20T02:33:40.663Z,84.90
2018-06-20T02:36:21.040Z,84.90
2018-06-20T02:38:55.162Z,84.90
2018-06-20T02:41:30.017Z,84.90
2018-06-20T02:44:04.974Z,85.00
2018-06-20T02:46:39.466Z,84.90
2018-06-20T02:51:49.135Z,85.00
2018-06-20T02:54:23.682Z,85.00
2018-06-20T02:56:58.526Z,85.10
2018-06-20T02:59:33.037Z,85.20
2018-06-20T03:02:07.816Z,86.00
2018-06-20T03:04:42.414Z,85.10
2018-06-20T03:07:17.025Z,85.10
2018-06-20T03:09:51.645Z,85.20
2018-06-20T03:12:26.423Z,85.30
2018-06-20T03:15:01.206Z,85.30
2018-06-20T03:17:36.336Z,85.30
2018-06-20T03:20:10.723Z,85.20
2018-06-20T03:22:45.408Z,85.30
2018-06-20T03:25:20.036Z,85.40
2018-06-20T03:27:54.840Z,85.50
2018-06-20T03:30:29.417Z,85.50
2018-06-20T03:33:04.153Z,85.50
2018-06-20T03:35:38.618Z,85.60
2018-06-20T03:38:13.336Z,85.60
2018-06-20T03:40:47.985Z,85.50
2018-06-20T03:43:22.763Z,85.40
2018-06-20T03:45:57.308Z,85.40
2018-06-20T03:48:32.179Z,85.40
2018-06-20T03:51:06.867Z,85.40
2018-06-20T03:53:41.336Z,85.40
2018-06-20T03:56:15.728Z,85.40
2018-06-20T04:01:24.782Z,85.50
2018-06-20T04:03:59.606Z,85.60
2018-06-20T04:06:34.137Z,85.70
2018-06-20T04:09:11.832Z,85.20
2018-06-20T04:11:47.201Z,85.80
2018-06-20T04:14:22.338Z,85.90
2018-06-20T04:16:57.005Z,85.80
2018-06-20T04:19:31.694Z,85.80
2018-06-20T04:22:06.502Z,85.90
2018-06-20T04:24:41.434Z,85.90
2018-06-20T04:27:16.227Z,85.60
2018-06-20T04:29:50.877Z,85.50
2018-06-20T04:32:25.552Z,85.50
2018-06-20T04:35:00.730Z,85.60
2018-06-20T04:37:34.896Z,85.80
2018-06-20T04:40:09.814Z,85.70
2018-06-20T04:42:44.650Z,85.20
2018-06-20T04:45:20.309Z,84.10
2018-06-20T04:47:54.545Z,84.00
2018-06-20T04:50:29.342Z,82.70
2018-06-20T04:53:03.822Z,82.20
2018-06-20T04:55:38.698Z,82.40
2018-06-20T04:58:14.497Z,82.80
2018-06-20T05:00:48.784Z,82.40
2018-06-20T05:03:23.555Z,82.20
2018-06-20T05:05:57.843Z,82.00
2018-06-20T05:08:33.099Z,81.00
2018-06-20T05:11:07.435Z,80.60
2018-06-20T05:13:41.958Z,79.20
2018-06-20T05:16:16.624Z,78.40
2018-06-20T05:18:51.610Z,78.50
2018-06-20T05:21:27.090Z,77.50
2018-06-20T05:24:01.990Z,77.00
2018-06-20T05:26:36.905Z,76.80
2018-06-20T05:29:11.323Z,76.70
2018-06-20T05:31:45.689Z,73.90
2018-06-20T05:34:20.442Z,72.10
2018-06-20T05:36:55.175Z,70.40
2018-06-20T05:39:29.861Z,67.70
2018-06-20T05:42:04.525Z,63.10
2018-06-20T05:44:40.011Z,61.10
2018-06-20T05:47:14.707Z,57.50
2018-06-20T05:49:49.732Z,56.90
2018-06-20T05:52:23.840Z,56.90
2018-06-20T05:54:59.191Z,55.60
2018-06-20T05:57:33.303Z,55.10
2018-06-20T06:00:08.188Z,55.20
2018-06-20T06:02:42.766Z,54.20
2018-06-20T06:05:17.333Z,54.20
2018-06-20T06:07:51.956Z,54.00
2018-06-20T06:10:26.737Z,53.40
2018-06-20T06:13:01.363Z,51.90
2018-06-20T06:15:36.310Z,51.80
2018-06-20T06:18:10.749Z,51.30
2018-06-20T06:20:45.529Z,49.60
2018-06-20T06:23:20.369Z,48.10
2018-06-20T06:25:55.811Z,46.10
2018-06-20T06:28:30.600Z,44.60
2018-06-20T06:31:11.994Z,45.50
2018-06-20T06:33:46.761Z,44.10
2018-06-20T06:36:21.609Z,43.90
2018-06-20T06:38:56.266Z,43.00
2018-06-20T06:41:30.867Z,42.40
2018-06-20T06:44:05.798Z,41.60
2018-06-20T06:46:40.192Z,41.40
2018-06-20T06:49:15.274Z,42.40
2018-06-20T06:51:50.121Z,41.10
2018-06-20T06:54:25.929Z,40.60
2018-06-20T06:57:07.538Z,41.20
2018-06-20T06:59:42.496Z,43.00
2018-06-20T07:02:17.350Z,41.30
2018-06-20T07:04:51.989Z,40.40
2018-06-20T07:07:26.664Z,41.60
2018-06-20T07:10:01.219Z,41.50
2018-06-20T07:12:35.901Z,40.90
2018-06-20T07:15:10.506Z,41.20
2018-06-20T07:17:45.258Z,41.50
2018-06-20T07:20:20.070Z,42.90
2018-06-20T07:22:54.533Z,43.20
2018-06-20T07:25:28.925Z,42.20
2018-06-20T07:28:03.771Z,41.70
2018-06-20T07:30:38.317Z,42.50
2018-06-20T07:33:12.808Z,42.60
2018-06-20T07:35:47.499Z,42.30
2018-06-20T07:38:22.186Z,41.80
2018-06-20T07:40:56.982Z,42.20
2018-06-20T07:43:31.588Z,42.90
2018-06-20T07:46:07.023Z,41.80
2018-06-20T07:48:41.941Z,43.70
2018-06-20T07:51:16.809Z,44.00
2018-06-20T07:53:51.055Z,42.50
2018-06-20T07:56:25.731Z,44.30
2018-06-20T07:59:01.654Z,44.00
2018-06-20T08:01:59.382Z,43.50
2018-06-20T08:04:40.312Z,44.20
2018-06-20T08:07:20.730Z,43.40
2018-06-20T08:10:01.532Z,43.50
2018-06-20T08:12:42.055Z,43.40
2018-06-20T08:18:03.226Z,44.00
2018-06-20T08:23:13.815Z,43.90
2018-06-20T08:25:48.510Z,43.30
2018-06-20T08:28:22.981Z,46.20
2018-06-20T08:30:57.979Z,43.20
2018-06-20T08:33:32.976Z,42.60
2018-06-20T08:36:07.262Z,43.20
2018-06-20T08:38:42.026Z,43.10
2018-06-20T08:41:16.706Z,44.00
2018-06-20T08:43:51.643Z,43.10
2018-06-20T08:46:26.298Z,43.30
2018-06-20T08:49:00.702Z,42.80
2018-06-20T08:51:36.231Z,43.00
2018-06-20T08:56:45.599Z,42.90
2018-06-20T08:59:20.239Z,43.60
2018-06-20T09:01:55.230Z,43.40
2018-06-20T09:04:35.379Z,43.50
2018-06-20T09:07:16.313Z,39.90
2018-06-20T09:09:56.962Z,39.00
2018-06-20T09:12:38.043Z,38.90
2018-06-20T09:17:59.391Z,38.10
2018-06-20T09:20:34.051Z,38.50
2018-06-20T09:23:09.023Z,37.60
2018-06-20T09:25:43.588Z,37.40
2018-06-20T09:28:18.136Z,37.50
2018-06-20T09:30:52.800Z,36.00
2018-06-20T09:33:27.429Z,38.10
2018-06-20T09:36:02.192Z,38.30
2018-06-20T09:38:37.002Z,36.00
2018-06-20T09:41:11.636Z,37.60
2018-06-20T09:43:46.230Z,36.60
2018-06-20T09:46:20.658Z,35.00
2018-06-20T09:48:56.204Z,37.30
2018-06-20T09:51:30.949Z,37.50
2018-06-20T09:54:05.776Z,36.70
2018-06-20T09:56:40.263Z,37.50
2018-06-20T09:59:20.747Z,38.30
2018-06-20T10:02:01.226Z,38.00
2018-06-20T10:04:41.929Z,38.30
2018-06-20T10:07:24.647Z,38.80
2018-06-20T10:11:09.105Z,39.40
2018-06-20T10:13:47.862Z,41.60
2018-06-20T10:16:22.363Z,40.00
2018-06-20T10:18:57.416Z,39.70
2018-06-20T10:21:32.641Z,41.70
2018-06-20T10:24:07.709Z,42.50
2018-06-20T10:26:42.749Z,44.20
2018-06-20T10:29:17.369Z,44.30
2018-06-20T10:31:51.923Z,41.90
2018-06-20T10:34:26.671Z,42.30
2018-06-20T10:37:02.239Z,43.40
2018-06-20T10:39:37.348Z,40.70
2018-06-20T10:42:11.641Z,41.20
2018-06-20T10:44:46.311Z,41.50
2018-06-20T10:47:26.455Z,42.10
2018-06-20T10:50:01.583Z,42.10
2018-06-20T10:52:36.016Z,43.80
2018-06-20T10:55:13.150Z,43.00
2018-06-20T10:57:53.379Z,41.60
2018-06-20T11:00:34.008Z,43.30
2018-06-20T11:03:14.667Z,41.00
2018-06-20T11:05:55.240Z,42.20
2018-06-20T11:08:36.216Z,43.10
2018-06-20T11:11:16.757Z,41.50
2018-06-20T11:13:51.141Z,42.60
2018-06-20T11:16:25.546Z,43.00
2018-06-20T11:19:00.814Z,43.70
2018-06-20T11:21:36.018Z,42.70
2018-06-20T11:24:11.020Z,43.20
2018-06-20T11:26:45.496Z,42.90
2018-06-20T11:29:20.162Z,43.80
2018-06-20T11:31:55.446Z,45.10
2018-06-20T11:34:30.149Z,45.50
2018-06-20T11:37:04.787Z,45.40
2018-06-20T11:39:39.912Z,46.30
2018-06-20T11:42:14.852Z,46.40
2018-06-20T11:44:49.774Z,46.20
2018-06-20T11:47:29.834Z,47.10
2018-06-20T11:50:05.002Z,46.80
2018-06-20T11:53:14.314Z,46.10
2018-06-20T11:55:49.040Z,45.90
2018-06-20T11:58:29.672Z,46.30
2018-06-20T12:01:09.978Z,46.60
2018-06-20T12:03:50.636Z,47.10
2018-06-20T12:06:31.769Z,47.30
2018-06-20T12:09:13.026Z,47.40
2018-06-20T12:11:53.497Z,47.20
2018-06-20T12:14:33.389Z,46.80
2018-06-20T12:17:07.658Z,47.80
2018-06-20T12:19:47.644Z,48.90
2018-06-20T12:22:28.335Z,49.20
2018-06-20T12:25:09.002Z,48.90
2018-06-20T12:27:49.809Z,47.70
2018-06-20T12:30:29.991Z,46.40
2018-06-20T12:33:10.160Z,47.20
2018-06-20T12:35:50.338Z,48.10
2018-06-20T12:38:31.430Z,47.60
2018-06-20T12:41:12.345Z,47.70
2018-06-20T12:43:53.498Z,49.10
2018-06-20T12:46:32.475Z,49.90
2018-06-20T12:49:09.191Z,49.70
2018-06-20T12:51:44.267Z,48.30
2018-06-20T12:54:19.156Z,49.20
2018-06-20T12:56:54.306Z,48.10
2018-06-20T12:59:29.758Z,47.90
2018-06-20T13:02:04.395Z,49.30
2018-06-20T13:04:39.668Z,49.90
2018-06-20T13:07:14.790Z,50.90
2018-06-20T13:09:49.490Z,49.90
2018-06-20T13:12:24.362Z,49.60
2018-06-20T13:15:00.404Z,50.40
2018-06-20T13:17:35.906Z,49.30
2018-06-20T13:20:11.360Z,49.50
2018-06-20T13:22:46.343Z,49.60
2018-06-20T13:25:21.669Z,50.50
2018-06-20T13:27:57.138Z,50.50
2018-06-20T13:30:32.081Z,49.60
2018-06-20T13:33:12.413Z,49.00
2018-06-20T13:35:53.205Z,49.80
2018-06-20T13:38:33.606Z,49.80
2018-06-20T13:41:14.031Z,49.90
2018-06-20T13:43:54.530Z,49.40
2018-06-20T13:46:35.522Z,49.20
2018-06-20T13:49:10.733Z,49.70
2018-06-20T13:51:44.989Z,50.40
2018-06-20T13:54:20.434Z,49.90
2018-06-20T13:56:54.983Z,50.50
2018-06-20T13:59:29.659Z,50.30
2018-06-20T14:02:05.125Z,49.40
2018-06-20T14:04:40.045Z,49.90
2018-06-20T14:07:14.724Z,49.80
2018-06-20T14:09:49.379Z,49.50
2018-06-20T14:12:24.048Z,49.80
2018-06-20T14:14:58.623Z,50.10
2018-06-20T14:17:33.990Z,50.20
2018-06-20T14:20:14.184Z,50.70
2018-06-20T14:22:49.784Z,51.00
2018-06-20T14:25:24.874Z,50.70
2018-06-20T14:27:59.802Z,49.80
2018-06-20T14:30:39.939Z,49.80
2018-06-20T14:33:21.009Z,50.00
2018-06-20T14:36:01.612Z,50.40
2018-06-20T14:38:42.715Z,50.90
2018-06-20T14:41:21.861Z,50.60
2018-06-20T14:44:02.745Z,50.30
2018-06-20T14:46:37.421Z,51.10
2018-06-20T14:49:12.168Z,50.90
2018-06-20T14:51:46.724Z,50.30
2018-06-20T14:54:21.928Z,50.30
2018-06-20T14:56:57.147Z,50.50
2018-06-20T14:59:32.104Z,51.10
2018-06-20T15:02:06.503Z,50.80
2018-06-20T15:04:41.327Z,51.20
2018-06-20T15:07:16.045Z,51.50
2018-06-20T15:09:50.912Z,51.90
2018-06-20T15:12:25.688Z,50.90
2018-06-20T15:15:00.399Z,51.10
2018-06-20T15:17:35.268Z,50.00
2018-06-20T15:20:10.050Z,50.20
2018-06-20T15:22:47.662Z,50.10
2018-06-20T15:25:27.735Z,50.70
2018-06-20T15:28:08.593Z,49.70
2018-06-20T15:30:49.348Z,50.20
2018-06-20T15:33:29.396Z,50.00
2018-06-20T15:36:11.770Z,50.30
2018-06-20T15:38:46.159Z,50.10
2018-06-20T15:41:20.664Z,50.80
2018-06-20T15:43:55.183Z,51.30
2018-06-20T15:46:30.063Z,51.00
2018-06-20T15:49:06.162Z,50.60
2018-06-20T15:51:41.267Z,49.90
2018-06-20T15:54:15.826Z,50.40
2018-06-20T15:56:50.459Z,50.20
2018-06-20T15:59:24.978Z,50.60
2018-06-20T16:01:59.739Z,51.00
2018-06-20T16:04:34.187Z,50.70
2018-06-20T16:07:09.468Z,50.70
2018-06-20T16:09:49.689Z,50.80
2018-06-20T16:12:25.049Z,51.00
2018-06-20T16:15:00.402Z,50.60
2018-06-20T16:17:34.662Z,50.30
2018-06-20T16:20:14.955Z,50.60
2018-06-20T16:22:54.814Z,50.80
2018-06-20T16:25:34.737Z,51.20
2018-06-20T16:28:15.423Z,51.90
2018-06-20T16:30:50.166Z,51.20
2018-06-20T16:33:25.135Z,50.60
2018-06-20T16:36:00.203Z,51.20
2018-06-20T16:38:35.641Z,50.90
2018-06-20T16:41:09.755Z,51.80
2018-06-20T16:43:45.366Z,51.60
2018-06-20T16:46:20.007Z,51.70
2018-06-20T16:48:55.150Z,51.90
2018-06-20T16:51:30.406Z,51.60
2018-06-20T16:54:05.307Z,51.60
2018-06-20T16:56:39.482Z,51.20
2018-06-20T16:59:14.100Z,51.50
2018-06-20T17:01:54.372Z,51.60
2018-06-20T17:04:29.479Z,51.70
2018-06-20T17:07:04.309Z,51.70
2018-06-20T17:09:39.400Z,51.30
2018-06-20T17:12:20.104Z,52.00
2018-06-20T17:15:00.748Z,51.50
2018-06-20T17:17:41.590Z,51.60
2018-06-20T17:20:21.998Z,52.50
2018-06-20T17:23:02.738Z,52.00
2018-06-20T17:25:37.781Z,52.10
2018-06-20T17:28:12.039Z,53.20
2018-06-20T17:30:46.922Z,52.90
2018-06-20T17:33:22.162Z,52.30
2018-06-20T17:35:56.463Z,52.60
2018-06-20T17:38:31.309Z,53.10
2018-06-20T17:41:05.631Z,52.20
2018-06-20T17:43:40.165Z,52.50
2018-06-20T17:46:14.809Z,53.10
2018-06-20T17:48:49.671Z,52.90
2018-06-20T17:51:24.836Z,52.80
2018-06-20T17:53:59.492Z,53.10
2018-06-20T17:56:34.724Z,53.10
2018-06-20T17:59:09.017Z,53.40
2018-06-20T18:01:43.540Z,53.60
2018-06-20T18:04:24.067Z,53.00
2018-06-20T18:07:04.684Z,52.90
2018-06-20T18:12:25.804Z,52.90
2018-06-20T18:15:06.586Z,53.40
2018-06-20T18:17:41.822Z,53.50
2018-06-20T18:20:17.872Z,54.60
2018-06-20T18:22:52.557Z,52.90
2018-06-20T18:25:27.159Z,52.90
2018-06-20T18:28:01.719Z,52.80
2018-06-20T18:30:36.343Z,53.30
2018-06-20T18:33:11.243Z,53.30
2018-06-20T18:35:46.655Z,53.80
2018-06-20T18:38:21.530Z,53.80
2018-06-20T18:40:56.914Z,54.20
2018-06-20T18:43:31.151Z,53.90
2018-06-20T18:46:06.365Z,53.90
2018-06-20T18:48:40.978Z,55.10
2018-06-20T18:51:15.673Z,54.90
2018-06-20T18:53:51.015Z,55.60
2018-06-20T18:56:25.673Z,56.30
2018-06-20T18:59:06.297Z,55.50
2018-06-20T19:01:47.020Z,56.90
2018-06-20T19:04:27.425Z,57.80
2018-06-20T19:07:08.029Z,58.30
2018-06-20T19:09:43.097Z,58.80
2018-06-20T19:12:17.823Z,58.00
2018-06-20T19:14:52.482Z,58.70
2018-06-20T19:17:27.022Z,59.30
2018-06-20T19:20:02.246Z,60.10
2018-06-20T19:22:36.464Z,60.40
2018-06-20T19:25:11.381Z,60.90
2018-06-20T19:27:45.789Z,61.00
2018-06-20T19:30:20.526Z,61.20
2018-06-20T19:32:54.815Z,61.80
2018-06-20T19:35:31.132Z,62.40
2018-06-20T19:38:06.426Z,63.10
2018-06-20T19:40:41.530Z,63.40
2018-06-20T19:43:17.401Z,63.40
2018-06-20T19:45:52.935Z,64.00
2018-06-20T19:48:29.453Z,64.40
2018-06-20T19:51:04.913Z,64.70
2018-06-20T19:53:40.102Z,65.00
2018-06-20T19:56:15.551Z,65.20
2018-06-20T19:58:50.471Z,65.60
2018-06-20T20:01:25.058Z,66.00
2018-06-20T20:03:59.418Z,66.50
2018-06-20T20:06:34.726Z,66.70
2018-06-20T20:09:09.689Z,67.00
2018-06-20T20:11:44.538Z,67.20
2018-06-20T20:14:20.906Z,67.40
2018-06-20T20:16:55.626Z,67.70
2018-06-20T20:19:30.114Z,68.00
2018-06-20T20:22:05.057Z,68.30
2018-06-20T20:24:39.572Z,69.10
2018-06-20T20:27:14.345Z,68.60
2018-06-20T20:29:48.817Z,68.80
2018-06-20T20:32:24.182Z,69.90
2018-06-20T20:34:59.398Z,69.50
2018-06-20T20:37:34.191Z,69.80
2018-06-20T20:40:08.672Z,70.10
2018-06-20T20:42:43.044Z,70.40
2018-06-20T20:45:18.000Z,70.70
2018-06-20T20:47:52.526Z,70.90
2018-06-20T20:50:27.557Z,71.00
2018-06-20T20:53:01.673Z,71.20
2018-06-20T20:55:37.570Z,71.20
2018-06-20T20:58:12.264Z,71.50
2018-06-20T21:00:47.621Z,71.60
2018-06-20T21:03:22.838Z,71.90
2018-06-20T21:05:57.779Z,72.00
2018-06-20T21:08:33.478Z,72.30
2018-06-20T21:11:08.517Z,72.50
2018-06-20T21:13:43.344Z,72.70
2018-06-20T21:16:18.140Z,73.00
2018-06-20T21:18:52.456Z,73.30
2018-06-20T21:21:27.254Z,73.30
2018-06-20T21:24:01.503Z,73.50
2018-06-20T21:26:36.356Z,73.50
2018-06-20T21:29:11.006Z,73.90
2018-06-20T21:31:46.399Z,74.00
2018-06-20T21:34:21.278Z,74.30
2018-06-20T21:36:55.953Z,74.50
2018-06-20T21:39:30.583Z,74.70
2018-06-20T21:42:06.029Z,74.90
2018-06-20T21:44:41.080Z,75.10
2018-06-20T21:47:15.720Z,75.30
2018-06-20T21:49:50.245Z,75.50
2018-06-20T21:54:59.843Z,75.90
2018-06-20T21:57:34.376Z,75.90
2018-06-20T22:00:10.892Z,76.20
2018-06-20T22:02:45.854Z,76.50
2018-06-20T22:05:20.219Z,76.60
2018-06-20T22:07:54.980Z,76.60
2018-06-20T22:10:29.631Z,76.90
2018-06-20T22:13:04.609Z,77.00
2018-06-20T22:15:39.293Z,77.10
2018-06-20T22:18:14.161Z,77.20
2018-06-20T22:20:48.948Z,77.60
2018-06-20T22:23:23.729Z,77.80
2018-06-20T22:25:58.075Z,78.50
2018-06-20T22:28:32.962Z,78.00
2018-06-20T22:31:07.501Z,78.20
2018-06-20T22:33:42.354Z,79.10
2018-06-20T22:36:16.794Z,78.50
2018-06-20T22:38:51.617Z,78.50
2018-06-20T22:41:26.222Z,78.60
2018-06-20T22:44:00.969Z,78.70
2018-06-20T22:46:35.526Z,78.80
2018-06-20T22:49:10.330Z,79.00
2018-06-20T22:51:44.954Z,79.00
2018-06-20T22:54:19.688Z,79.20
2018-06-20T22:56:54.499Z,79.30
2018-06-20T22:59:29.419Z,79.30
2018-06-20T23:02:03.912Z,79.40
2018-06-20T23:04:39.460Z,79.40
2018-06-20T23:07:14.349Z,80.30
2018-06-20T23:09:49.086Z,79.70
2018-06-20T23:12:23.725Z,79.80
2018-06-20T23:14:58.387Z,79.80
2018-06-20T23:17:33.076Z,80.00
2018-06-20T23:20:07.823Z,80.00
2018-06-20T23:22:42.571Z,80.00
2018-06-20T23:25:17.125Z,80.00
2018-06-20T23:27:51.987Z,80.10
2018-06-20T23:30:26.879Z,80.20
2018-06-20T23:33:02.274Z,80.20
2018-06-20T23:35:36.945Z,80.40
2018-06-20T23:38:11.689Z,80.40
2018-06-20T23:40:46.309Z,80.60
2018-06-20T23:43:21.160Z,80.50
2018-06-20T23:45:56.397Z,80.50
2018-06-20T23:48:30.728Z,80.60
2018-06-20T23:51:05.271Z,80.80
2018-06-20T23:53:39.925Z,80.70
2018-06-20T23:56:14.967Z,81.40
2018-06-20T23:58:49.364Z,80.70
